createdAt,value
2023-05-12T00:02:05.906Z,98916.09
2023-05-12T00:04:32.325Z,98908.78
2023-05-12T00:06:59.150Z,98914.09
2023-05-12T00:09:25.527Z,98908.78
2023-05-12T00:11:51.938Z,98906.81
2023-05-12T00:14:18.688Z,98910.72
2023-05-12T00:16:45.107Z,98902.28
2023-05-12T00:19:11.600Z,98908.09
2023-05-12T00:21:37.978Z,98914.88
2023-05-12T00:24:04.401Z,98905.91
2023-05-12T00:26:30.806Z,98915.00
2023-05-12T00:28:57.177Z,98913.03
2023-05-12T00:31:23.661Z,98906.88
2023-05-12T00:33:50.044Z,98905.31
2023-05-12T00:36:16.411Z,98903.41
2023-05-12T00:38:42.924Z,98904.50
2023-05-12T00:41:09.308Z,98903.91
2023-05-12T00:43:36.780Z,98902.72
2023-05-12T00:46:03.409Z,98905.44
2023-05-12T00:48:29.831Z,98897.78
2023-05-12T00:50:56.350Z,98908.03
2023-05-12T00:53:22.941Z,98906.34
2023-05-12T00:55:49.437Z,98912.13
2023-05-12T00:58:15.815Z,98911.63
2023-05-12T01:00:42.165Z,98906.16
2023-05-12T01:03:08.714Z,98904.19
2023-05-12T01:05:35.176Z,98911.47
2023-05-12T01:08:01.816Z,98904.59
2023-05-12T01:10:28.138Z,98914.50
2023-05-12T01:12:54.552Z,98917.75
2023-05-12T01:15:20.912Z,98912.56
2023-05-12T01:17:47.495Z,98912.69
2023-05-12T01:20:14.008Z,98913.66
2023-05-12T01:22:40.426Z,98918.97
2023-05-12T01:25:06.795Z,98919.94
2023-05-12T01:27:33.309Z,98929.47
2023-05-12T01:29:59.739Z,98930.19
2023-05-12T01:32:26.120Z,98922.56
2023-05-12T01:34:52.510Z,98925.72
2023-05-12T01:37:19.007Z,98919.81
2023-05-12T01:39:45.471Z,98931.16
2023-05-12T01:42:11.831Z,98931.50
2023-05-12T01:44:38.246Z,98920.66
2023-05-12T01:47:04.691Z,98921.63
2023-05-12T01:49:31.121Z,98922.47
2023-05-12T01:51:57.478Z,98927.88
2023-05-12T01:54:23.871Z,98925.72
2023-05-12T01:56:50.620Z,98923.56
2023-05-12T01:59:17.010Z,98929.09
2023-05-12T02:01:43.645Z,98922.09
2023-05-12T02:04:10.121Z,98924.50
2023-05-12T02:06:36.528Z,98926.81
2023-05-12T02:09:03.182Z,98923.44
2023-05-12T02:11:29.861Z,98923.31
2023-05-12T02:13:56.235Z,98932.00
2023-05-12T02:16:25.494Z,98926.81
2023-05-12T02:18:52.071Z,98922.09
2023-05-12T02:21:20.783Z,98928.13
2023-05-12T02:23:48.278Z,98929.09
2023-05-12T02:26:14.655Z,98942.13
2023-05-12T02:28:41.047Z,98936.59
2023-05-12T02:31:07.492Z,98944.91
2023-05-12T02:33:33.921Z,98950.34
2023-05-12T02:36:00.258Z,98936.56
2023-05-12T02:38:26.679Z,98942.84
2023-05-12T02:40:53.056Z,98941.75
2023-05-12T02:43:19.642Z,98939.44
2023-05-12T02:45:46.086Z,98937.69
2023-05-12T02:48:12.465Z,98938.72
2023-05-12T02:50:39.194Z,98939.44
2023-05-12T02:53:05.632Z,98941.75
2023-05-12T02:55:32.312Z,98936.69
2023-05-12T02:57:58.955Z,98945.47
2023-05-12T03:00:25.382Z,98938.13
2023-05-12T03:02:51.853Z,98941.13
2023-05-12T03:05:18.305Z,98939.44
2023-05-12T03:07:45.128Z,98940.41
2023-05-12T03:10:11.508Z,98938.72
2023-05-12T03:12:37.873Z,98942.38
2023-05-12T03:15:04.287Z,98941.63
2023-05-12T03:17:31.005Z,98942.63
2023-05-12T03:19:57.450Z,98942.03
2023-05-12T03:22:23.895Z,98945.53
2023-05-12T03:24:50.337Z,98938.91
2023-05-12T03:27:16.647Z,98939.09
2023-05-12T03:29:43.201Z,98946.69
2023-05-12T03:32:09.598Z,98942.13
2023-05-12T03:34:36.029Z,98945.38
2023-05-12T03:37:02.456Z,98937.31
2023-05-12T03:39:28.827Z,98944.91
2023-05-12T03:41:55.212Z,98941.06
2023-05-12T03:44:21.861Z,98936.72
2023-05-12T03:46:48.341Z,98933.09
2023-05-12T03:49:15.249Z,98944.09
2023-05-12T03:51:41.789Z,98939.09
2023-05-12T03:54:08.126Z,98936.94
2023-05-12T03:56:34.569Z,98947.78
2023-05-12T03:59:00.989Z,98942.97
2023-05-12T04:01:27.389Z,98937.41
2023-05-12T04:03:53.921Z,98944.59
2023-05-12T04:06:20.353Z,98943.75
2023-05-12T04:08:46.753Z,98943.97
2023-05-12T04:11:13.712Z,98950.25
2023-05-12T04:13:40.235Z,98939.94
2023-05-12T04:16:06.582Z,98952.22
2023-05-12T04:18:33.075Z,98957.13
2023-05-12T04:20:59.462Z,98952.28
2023-05-12T04:23:25.855Z,98957.06
2023-05-12T04:25:52.401Z,98963.84
2023-05-12T04:28:19.115Z,98968.31
2023-05-12T04:30:45.546Z,98968.66
2023-05-12T04:33:11.966Z,98965.28
2023-05-12T04:35:39.041Z,98969.50
2023-05-12T04:38:05.439Z,98974.91
2023-05-12T04:40:34.716Z,98969.34
2023-05-12T04:43:01.427Z,98973.13
2023-05-12T04:45:27.855Z,98984.56
2023-05-12T04:47:54.276Z,98978.25
2023-05-12T04:50:20.740Z,98981.34
2023-05-12T04:52:47.153Z,98980.06
2023-05-12T04:55:13.482Z,98988.94
2023-05-12T04:57:39.900Z,98991.38
2023-05-12T05:00:06.418Z,98984.91
2023-05-12T05:02:32.946Z,98985.84
2023-05-12T05:04:59.392Z,98985.41
2023-05-12T05:07:25.776Z,98985.72
2023-05-12T05:09:52.105Z,98984.94
2023-05-12T05:12:19.573Z,98984.75
2023-05-12T05:14:45.953Z,98986.72
2023-05-12T05:17:12.481Z,98981.91
2023-05-12T05:19:53.135Z,98984.09
2023-05-12T05:22:24.363Z,98982.66
2023-05-12T05:24:50.789Z,98988.06
2023-05-12T05:27:17.186Z,98979.72
2023-05-12T05:29:43.594Z,98983.56
2023-05-12T05:32:09.995Z,98989.63
2023-05-12T05:34:36.580Z,98984.09
2023-05-12T05:37:05.047Z,98983.09
2023-05-12T05:39:31.389Z,98983.00
2023-05-12T05:41:57.895Z,98988.19
2023-05-12T05:44:24.305Z,98979.03
2023-05-12T05:46:50.943Z,98983.75
2023-05-12T05:49:17.411Z,98988.44
2023-05-12T05:51:43.745Z,98991.34
2023-05-12T05:54:10.125Z,98989.38
2023-05-12T05:56:36.978Z,98985.78
2023-05-12T05:59:03.840Z,98989.94
2023-05-12T06:01:30.417Z,98984.38
2023-05-12T06:03:57.027Z,98988.44
2023-05-12T06:06:23.619Z,98986.25
2023-05-12T06:08:50.052Z,98991.34
2023-05-12T06:11:17.916Z,98991.56
2023-05-12T06:13:44.487Z,99005.28
2023-05-12T06:16:10.944Z,99013.69
2023-05-12T06:18:37.504Z,99006.25
2023-05-12T06:21:04.234Z,99016.25
2023-05-12T06:23:30.654Z,99016.69
2023-05-12T06:25:57.255Z,99018.06
2023-05-12T06:28:23.719Z,99016.47
2023-05-12T06:30:50.487Z,99018.16
2023-05-12T06:33:16.852Z,99026.34
2023-05-12T06:35:43.219Z,99027.16
2023-05-12T06:38:09.567Z,99023.84
2023-05-12T06:40:36.006Z,99019.84
2023-05-12T06:43:02.606Z,99028.66
2023-05-12T06:45:29.025Z,99016.03
2023-05-12T06:47:55.656Z,99025.53
2023-05-12T06:50:22.023Z,99022.66
2023-05-12T06:52:48.501Z,99024.72
2023-05-12T06:55:15.013Z,99025.28
2023-05-12T06:57:41.403Z,99024.53
2023-05-12T07:00:07.888Z,99029.72
2023-05-12T07:02:34.298Z,99019.47
2023-05-12T07:05:00.852Z,99020.31
2023-05-12T07:07:27.241Z,99023.34
2023-05-12T07:09:53.640Z,99022.00
2023-05-12T07:12:19.993Z,99030.69
2023-05-12T07:14:46.577Z,99030.28
2023-05-12T07:17:13.028Z,99031.88
2023-05-12T07:19:39.620Z,99032.59
2023-05-12T07:22:06.076Z,99022.22
2023-05-12T07:24:32.551Z,99026.47
2023-05-12T07:26:59.086Z,99022.22
2023-05-12T07:29:25.479Z,99024.19
2023-05-12T07:31:52.014Z,99020.53
2023-05-12T07:34:18.563Z,99021.31
2023-05-12T07:36:45.096Z,99029.00
2023-05-12T07:39:11.479Z,99023.81
2023-05-12T07:41:37.848Z,99036.72
2023-05-12T07:44:04.331Z,99032.59
2023-05-12T07:46:30.741Z,99031.88
2023-05-12T07:48:57.119Z,99030.84
2023-05-12T07:51:23.542Z,99032.31
2023-05-12T07:53:50.039Z,99045.13
2023-05-12T07:56:19.532Z,99044.59
2023-05-12T07:58:47.408Z,99048.56
2023-05-12T08:01:14.438Z,99048.53
2023-05-12T08:03:40.996Z,99053.41
2023-05-12T08:06:07.509Z,99058.31
2023-05-12T08:08:34.086Z,99064.34
2023-05-12T08:11:01.850Z,99052.34
2023-05-12T08:13:28.362Z,99065.19
2023-05-12T08:15:55.051Z,99060.81
2023-05-12T08:18:21.490Z,99057.66
2023-05-12T08:20:47.914Z,99062.09
2023-05-12T08:23:14.296Z,99062.31
2023-05-12T08:25:42.783Z,99063.59
2023-05-12T08:28:09.189Z,99072.59
2023-05-12T08:30:35.795Z,99070.16
2023-05-12T08:33:02.297Z,99073.56
2023-05-12T08:35:29.074Z,99065.03
2023-05-12T08:37:55.615Z,99069.31
2023-05-12T08:40:22.031Z,99072.03
2023-05-12T08:42:48.766Z,99075.41
2023-05-12T08:45:15.151Z,99074.41
2023-05-12T08:47:41.656Z,99068.47
2023-05-12T08:50:08.587Z,99066.78
2023-05-12T08:52:35.042Z,99062.81
2023-05-12T08:55:03.260Z,99061.31
2023-05-12T08:57:30.244Z,99064.47
2023-05-12T08:59:56.648Z,99073.59
2023-05-12T09:02:23.705Z,99069.03
2023-05-12T09:04:50.431Z,99069.66
2023-05-12T09:07:16.939Z,99069.25
2023-05-12T09:09:43.757Z,99068.91
2023-05-12T09:12:10.127Z,99070.09
2023-05-12T09:14:36.724Z,99080.59
2023-05-12T09:17:03.142Z,99083.50
2023-05-12T09:19:29.737Z,99075.69
2023-05-12T09:21:56.120Z,99082.78
2023-05-12T09:24:22.833Z,99095.19
2023-05-12T09:26:49.307Z,99101.31
2023-05-12T09:29:27.789Z,99097.38
2023-05-12T09:31:59.105Z,99099.09
2023-05-12T09:34:25.583Z,99091.34
2023-05-12T09:36:52.062Z,99097.06
2023-05-12T09:39:18.960Z,99112.53
2023-05-12T09:41:45.392Z,99114.88
2023-05-12T09:44:11.746Z,99112.09
2023-05-12T09:46:38.111Z,99112.88
2023-05-12T09:49:04.653Z,99107.78
2023-05-12T09:51:31.302Z,99101.97
2023-05-12T09:53:57.843Z,99102.56
2023-05-12T09:56:24.299Z,99105.78
2023-05-12T09:58:50.950Z,99099.41
2023-05-12T10:01:23.442Z,99099.72
2023-05-12T10:03:50.659Z,99097.63
2023-05-12T10:06:17.068Z,99100.75
2023-05-12T10:08:43.502Z,99100.63
2023-05-12T10:11:09.942Z,99110.84
2023-05-12T10:13:36.369Z,99101.06
2023-05-12T10:16:03.063Z,99102.91
2023-05-12T10:18:29.463Z,99099.53
2023-05-12T10:20:55.923Z,99104.94
2023-05-12T10:23:22.593Z,99104.06
2023-05-12T10:25:49.038Z,99115.88
2023-05-12T10:28:15.521Z,99102.03
2023-05-12T10:30:42.179Z,99098.03
2023-05-12T10:33:08.685Z,99110.94
2023-05-12T10:35:35.080Z,99112.00
2023-05-12T10:38:01.586Z,99113.94
2023-05-12T10:40:28.098Z,99112.13
2023-05-12T10:42:54.513Z,99112.66
2023-05-12T10:45:21.449Z,99111.69
2023-05-12T10:47:48.141Z,99116.34
2023-05-12T10:50:14.832Z,99115.47
2023-05-12T10:52:41.316Z,99120.63
2023-05-12T10:55:07.675Z,99110.53
2023-05-12T10:57:34.672Z,99117.50
2023-05-12T11:00:02.266Z,99120.97
2023-05-12T11:02:30.613Z,99126.78
2023-05-12T11:04:57.964Z,99125.75
2023-05-12T11:07:24.923Z,99120.00
2023-05-12T11:09:58.475Z,99119.00
2023-05-12T11:12:25.508Z,99126.03
2023-05-12T11:14:51.935Z,99118.78
2023-05-12T11:17:18.339Z,99129.97
2023-05-12T11:19:44.804Z,99127.91
2023-05-12T11:22:11.226Z,99124.75
2023-05-12T11:24:37.687Z,99128.69
2023-05-12T11:27:04.317Z,99135.63
2023-05-12T11:29:30.685Z,99133.25
2023-05-12T11:31:59.972Z,99133.59
2023-05-12T11:34:26.637Z,99133.03
2023-05-12T11:36:53.050Z,99139.19
2023-05-12T11:39:19.432Z,99133.78
2023-05-12T11:41:45.843Z,99146.75
2023-05-12T11:44:12.213Z,99141.06
2023-05-12T11:46:38.606Z,99145.38
2023-05-12T11:49:04.998Z,99145.38
2023-05-12T11:51:31.368Z,99144.91
2023-05-12T11:53:57.758Z,99150.47
2023-05-12T11:56:24.193Z,99148.41
2023-05-12T11:58:50.512Z,99154.00
2023-05-12T12:01:16.856Z,99150.50
2023-05-12T12:03:43.336Z,99161.41
2023-05-12T12:06:09.985Z,99156.75
2023-05-12T12:08:36.535Z,99165.56
2023-05-12T12:11:03.683Z,99160.69
2023-05-12T12:13:30.343Z,99168.13
2023-05-12T12:15:56.753Z,99170.22
2023-05-12T12:18:23.321Z,99169.97
2023-05-12T12:20:49.775Z,99167.84
2023-05-12T12:23:18.496Z,99160.97
2023-05-12T12:25:44.909Z,99169.66
2023-05-12T12:28:11.340Z,99172.31
2023-05-12T12:30:37.723Z,99170.22
2023-05-12T12:33:04.164Z,99177.59
2023-05-12T12:35:30.664Z,99176.97
2023-05-12T12:37:57.062Z,99175.91
2023-05-12T12:40:23.479Z,99175.69
2023-05-12T12:42:49.999Z,99177.88
2023-05-12T12:45:18.509Z,99180.69
2023-05-12T12:47:46.608Z,99182.06
2023-05-12T12:50:13.109Z,99185.44
2023-05-12T12:52:39.629Z,99179.31
2023-05-12T12:55:06.032Z,99186.50
2023-05-12T12:57:32.522Z,99178.97
2023-05-12T12:59:58.878Z,99185.97
2023-05-12T13:02:25.469Z,99182.88
2023-05-12T13:04:51.999Z,99187.34
2023-05-12T13:07:18.396Z,99179.69
2023-05-12T13:09:44.880Z,99184.38
2023-05-12T13:12:11.346Z,99185.66
2023-05-12T13:14:39.659Z,99184.81
2023-05-12T13:17:06.145Z,99181.69
2023-05-12T13:19:32.622Z,99182.78
2023-05-12T13:21:59.070Z,99185.34
2023-05-12T13:24:25.430Z,99185.03
2023-05-12T13:26:51.857Z,99185.66
2023-05-12T13:29:18.485Z,99176.53
2023-05-12T13:31:44.861Z,99182.69
2023-05-12T13:34:11.242Z,99178.16
2023-05-12T13:36:37.785Z,99177.28
2023-05-12T13:39:04.195Z,99180.69
2023-05-12T13:41:30.576Z,99181.31
2023-05-12T13:43:56.944Z,99171.34
2023-05-12T13:46:23.564Z,99174.78
2023-05-12T13:48:50.332Z,99175.28
2023-05-12T13:51:16.731Z,99181.31
2023-05-12T13:53:44.187Z,99187.16
2023-05-12T13:56:10.535Z,99180.25
2023-05-12T13:58:37.958Z,99178.78
2023-05-12T14:01:05.315Z,99178.41
2023-05-12T14:03:33.796Z,99174.69
2023-05-12T14:06:00.178Z,99181.75
2023-05-12T14:08:28.898Z,99174.00
2023-05-12T14:10:55.473Z,99177.34
2023-05-12T14:13:21.882Z,99172.34
2023-05-12T14:15:49.800Z,99176.59
2023-05-12T14:18:16.634Z,99177.22
2023-05-12T14:20:43.085Z,99173.41
2023-05-12T14:23:09.431Z,99182.69
2023-05-12T14:25:35.838Z,99177.50
2023-05-12T14:28:02.226Z,99173.16
2023-05-12T14:30:28.762Z,99177.38
2023-05-12T14:32:56.410Z,99178.03
2023-05-12T14:35:23.029Z,99175.69
2023-05-12T14:37:52.409Z,99180.56
2023-05-12T14:40:19.293Z,99175.97
2023-05-12T14:42:45.675Z,99179.16
2023-05-12T14:45:12.507Z,99181.59
2023-05-12T14:47:38.970Z,99181.38
2023-05-12T14:50:05.393Z,99189.00
2023-05-12T14:52:31.769Z,99178.41
2023-05-12T14:54:58.421Z,99190.16
2023-05-12T14:57:25.037Z,99183.16
2023-05-12T14:59:51.417Z,99180.53
2023-05-12T15:02:18.100Z,99184.13
2023-05-12T15:04:44.536Z,99183.50
2023-05-12T15:07:11.022Z,99178.00
2023-05-12T15:09:37.442Z,99184.78
2023-05-12T15:12:03.896Z,99183.69
2023-05-12T15:14:31.292Z,99175.88
2023-05-12T15:16:57.926Z,99176.91
2023-05-12T15:19:24.399Z,99180.09
2023-05-12T15:21:51.086Z,99176.91
2023-05-12T15:24:17.710Z,99173.84
2023-05-12T15:26:45.073Z,99178.63
2023-05-12T15:29:11.742Z,99172.91
2023-05-12T15:31:38.304Z,99173.97
2023-05-12T15:34:04.788Z,99178.84
2023-05-12T15:36:31.258Z,99176.50
2023-05-12T15:38:57.939Z,99179.91
2023-05-12T15:41:24.278Z,99181.38
2023-05-12T15:43:50.749Z,99175.81
2023-05-12T15:46:17.341Z,99179.81
2023-05-12T15:48:43.727Z,99181.16
2023-05-12T15:51:10.065Z,99183.97
2023-05-12T15:53:36.903Z,99180.84
2023-05-12T15:56:04.555Z,99174.59
2023-05-12T15:58:30.948Z,99179.69
2023-05-12T16:00:57.380Z,99175.00
2023-05-12T16:03:23.953Z,99181.31
2023-05-12T16:05:50.571Z,99165.84
2023-05-12T16:08:17.038Z,99170.94
2023-05-12T16:10:43.533Z,99169.59
2023-05-12T16:13:10.003Z,99169.59
2023-05-12T16:15:36.721Z,99171.63
2023-05-12T16:18:03.162Z,99177.75
2023-05-12T16:20:29.691Z,99186.56
2023-05-12T16:22:56.204Z,99181.31
2023-05-12T16:25:22.752Z,99186.44
2023-05-12T16:27:49.141Z,99192.75
2023-05-12T16:30:17.185Z,99185.16
2023-05-12T16:32:45.104Z,99190.63
2023-05-12T16:35:11.691Z,99195.97
2023-05-12T16:37:38.429Z,99193.97
2023-05-12T16:40:04.915Z,99202.03
2023-05-12T16:42:31.767Z,99203.31
2023-05-12T16:44:58.468Z,99199.19
2023-05-12T16:47:25.099Z,99204.25
2023-05-12T16:49:51.793Z,99198.44
2023-05-12T16:52:18.255Z,99201.25
2023-05-12T16:54:45.058Z,99191.91
2023-05-12T16:57:11.647Z,99196.34
2023-05-12T16:59:38.601Z,99194.91
2023-05-12T17:02:05.437Z,99206.03
2023-05-12T17:04:32.531Z,99199.78
2023-05-12T17:06:59.300Z,99207.09
2023-05-12T17:09:26.230Z,99208.84
2023-05-12T17:11:53.035Z,99206.41
2023-05-12T17:14:20.192Z,99202.50
2023-05-12T17:16:47.198Z,99204.66
2023-05-12T17:19:15.030Z,99208.91
2023-05-12T17:21:42.186Z,99209.09
2023-05-12T17:24:09.258Z,99212.50
2023-05-12T17:26:36.808Z,99216.09
2023-05-12T17:29:04.138Z,99217.78
2023-05-12T17:31:31.153Z,99224.91
2023-05-12T17:33:58.487Z,99219.53
2023-05-12T17:36:25.588Z,99216.88
2023-05-12T17:38:52.987Z,99215.94
2023-05-12T17:41:20.067Z,99227.91
2023-05-12T17:43:47.021Z,99219.69
2023-05-12T17:46:14.859Z,99221.38
2023-05-12T17:48:41.911Z,99228.38
2023-05-12T17:51:09.347Z,99230.19
2023-05-12T17:53:36.674Z,99226.88
2023-05-12T17:56:03.799Z,99224.63
2023-05-12T17:58:31.025Z,99228.97
2023-05-12T18:00:58.279Z,99229.72
2023-05-12T18:03:25.420Z,99229.81
2023-05-12T18:05:52.570Z,99227.66
2023-05-12T18:08:19.745Z,99231.69
2023-05-12T18:10:46.815Z,99228.03
2023-05-12T18:13:14.465Z,99232.84
2023-05-12T18:15:41.606Z,99231.16
2023-05-12T18:18:10.107Z,99226.63
2023-05-12T18:20:37.765Z,99226.69
2023-05-12T18:23:05.557Z,99230.31
2023-05-12T18:25:33.078Z,99233.44
2023-05-12T18:28:00.665Z,99231.13
2023-05-12T18:30:28.309Z,99242.09
2023-05-12T18:32:55.490Z,99242.28
2023-05-12T18:35:23.096Z,99239.84
2023-05-12T18:37:50.883Z,99243.44
2023-05-12T18:40:18.066Z,99238.41
2023-05-12T18:42:45.237Z,99246.59
2023-05-12T18:45:12.739Z,99240.00
2023-05-12T18:47:40.004Z,99246.63
2023-05-12T18:50:07.190Z,99244.72
2023-05-12T18:52:34.678Z,99245.25
2023-05-12T18:55:01.841Z,99251.59
2023-05-12T18:57:29.026Z,99251.09
2023-05-12T18:59:56.169Z,99251.13
2023-05-12T19:02:23.371Z,99255.63
2023-05-12T19:04:50.619Z,99254.19
2023-05-12T19:07:17.985Z,99250.44
2023-05-12T19:09:45.173Z,99255.53
2023-05-12T19:12:12.766Z,99253.84
2023-05-12T19:14:40.826Z,99254.69
2023-05-12T19:17:08.996Z,99255.53
2023-05-12T19:19:36.462Z,99262.94
2023-05-12T19:22:03.712Z,99257.00
2023-05-12T19:24:30.875Z,99259.94
2023-05-12T19:26:58.274Z,99255.81
2023-05-12T19:29:25.810Z,99261.78
2023-05-12T19:31:53.232Z,99280.59
2023-05-12T19:34:22.654Z,99277.75
2023-05-12T19:36:49.857Z,99269.16
2023-05-12T19:39:17.058Z,99281.75
2023-05-12T19:41:44.812Z,99272.31
2023-05-12T19:44:12.526Z,99275.25
2023-05-12T19:46:41.380Z,99272.31
2023-05-12T19:49:08.543Z,99275.72
2023-05-12T19:51:35.746Z,99285.75
2023-05-12T19:54:02.864Z,99289.75
2023-05-12T19:56:29.986Z,99287.00
2023-05-12T19:58:57.125Z,99289.91
2023-05-12T20:01:24.609Z,99285.66
2023-05-12T20:03:52.320Z,99287.81
2023-05-12T20:06:19.812Z,99286.34
2023-05-12T20:08:46.975Z,99282.25
2023-05-12T20:11:14.059Z,99285.00
2023-05-12T20:13:41.339Z,99291.53
2023-05-12T20:16:08.705Z,99275.91
2023-05-12T20:18:35.881Z,99284.06
2023-05-12T20:21:03.059Z,99283.56
2023-05-12T20:23:30.160Z,99275.75
2023-05-12T20:25:57.312Z,99282.53
2023-05-12T20:28:24.602Z,99272.63
2023-05-12T20:30:51.750Z,99276.97
2023-05-12T20:33:18.759Z,99279.97
2023-05-12T20:35:46.691Z,99278.78
2023-05-12T20:38:13.769Z,99277.63
2023-05-12T20:40:41.539Z,99278.38
2023-05-12T20:43:08.685Z,99270.25
2023-05-12T20:45:45.297Z,99271.41
2023-05-12T20:48:12.349Z,99272.44
2023-05-12T20:50:39.582Z,99272.72
2023-05-12T20:53:06.550Z,99271.59
2023-05-12T20:55:33.346Z,99275.38
2023-05-12T20:58:00.411Z,99272.94
2023-05-12T21:00:26.837Z,99281.22
2023-05-12T21:02:53.305Z,99275.94
2023-05-12T21:05:19.983Z,99271.78
2023-05-12T21:07:46.655Z,99272.91
2023-05-12T21:10:13.063Z,99273.28
2023-05-12T21:12:39.453Z,99271.22
2023-05-12T21:15:05.913Z,99274.88
2023-05-12T21:17:32.315Z,99273.56
2023-05-12T21:19:59.098Z,99272.53
2023-05-12T21:22:25.469Z,99267.13
2023-05-12T21:24:52.552Z,99267.34
2023-05-12T21:27:18.990Z,99273.84
2023-05-12T21:29:45.464Z,99260.44
2023-05-12T21:32:11.953Z,99264.88
2023-05-12T21:34:38.348Z,99267.25
2023-05-12T21:37:04.895Z,99263.38
2023-05-12T21:39:31.383Z,99266.69
2023-05-12T21:41:57.928Z,99264.44
2023-05-12T21:44:24.296Z,99275.06
2023-05-12T21:46:50.760Z,99269.88
2023-05-12T21:49:17.124Z,99268.78
2023-05-12T21:51:43.545Z,99270.84
2023-05-12T21:54:10.091Z,99268.94
2023-05-12T21:56:36.783Z,99271.22
2023-05-12T21:59:03.307Z,99276.13
2023-05-12T22:01:29.824Z,99273.78
2023-05-12T22:03:56.381Z,99278.03
2023-05-12T22:06:22.826Z,99274.81
2023-05-12T22:08:49.251Z,99271.97
2023-05-12T22:11:15.618Z,99276.41
2023-05-12T22:13:42.048Z,99277.66
2023-05-12T22:16:08.443Z,99279.16
2023-05-12T22:18:35.356Z,99272.44
2023-05-12T22:21:01.890Z,99273.97
2023-05-12T22:23:28.301Z,99271.78
2023-05-12T22:25:54.700Z,99276.03
2023-05-12T22:28:21.183Z,99270.44
2023-05-12T22:30:47.565Z,99275.38
2023-05-12T22:33:13.894Z,99266.28
2023-05-12T22:35:40.294Z,99269.03
2023-05-12T22:38:06.647Z,99274.03
2023-05-12T22:40:33.106Z,99267.44
2023-05-12T22:42:59.480Z,99267.84
2023-05-12T22:45:25.981Z,99260.25
2023-05-12T22:47:52.383Z,99262.44
2023-05-12T22:50:19.101Z,99255.75
2023-05-12T22:52:45.792Z,99263.09
2023-05-12T22:55:12.276Z,99271.03
2023-05-12T22:57:38.691Z,99266.28
2023-05-12T23:00:05.167Z,99266.78
2023-05-12T23:02:31.658Z,99268.47
2023-05-12T23:04:58.064Z,99268.38
2023-05-12T23:07:24.506Z,99267.44
2023-05-12T23:09:50.899Z,99267.25
2023-05-12T23:12:17.521Z,99269.63
2023-05-12T23:14:43.953Z,99267.25
2023-05-12T23:17:10.337Z,99263.09
2023-05-12T23:19:36.786Z,99266.13
2023-05-12T23:22:03.210Z,99266.13
2023-05-12T23:24:31.987Z,99253.69
2023-05-12T23:26:58.327Z,99259.16
2023-05-12T23:29:24.694Z,99255.19
2023-05-12T23:31:51.160Z,99259.53
2023-05-12T23:34:17.646Z,99258.56
2023-05-12T23:36:44.019Z,99261.78
2023-05-12T23:39:10.508Z,99254.50
2023-05-12T23:41:37.022Z,99264.59
2023-05-12T23:44:03.657Z,99255.56
2023-05-12T23:46:30.602Z,99253.66
2023-05-12T23:48:56.978Z,99252.91
2023-05-12T23:51:23.353Z,99257.41
2023-05-12T23:53:49.885Z,99247.22
2023-05-12T23:56:16.499Z,99248.16
2023-05-12T23:58:42.882Z,99255.00
